Time;durP1;ratioP1;P1;durP2;ratioP2;P2;SDS_P1;SDS_P2;PMS_P1;PMS_P2;Temp;Humidity;BMP_temperature;BMP_pressure;BME280_temperature;BME280_humidity;BME280_pressure;Samples;Min_cycle;Max_cycle;Signal;HPM_P1;HPM_P2
2022/08/22 15:35:53;;;;;;;4.80;1.85;;;26.90;59.50;;;;;;6146870;22;19958;-87
2022/08/22 15:38:26;;;;;;;4.72;1.80;;;26.90;60.90;;;;;;6150595;23;20021;-87
2022/08/22 15:41:16;;;;;;;4.82;2.20;;;27.00;61.70;;;;;;6154863;22;20006;-86
2022/08/22 15:43:48;;;;;;;3.42;2.17;;;27.00;62.20;;;;;;6125975;23;20006;-86
2022/08/22 15:46:20;;;;;;;3.97;1.95;;;27.00;62.10;;;;;;6126649;23;20005;-87
2022/08/22 15:49:18;;;;;;;4.30;2.08;;;27.00;61.60;;;;;;6126995;23;20009;-87
2022/08/22 15:52:01;;;;;;;5.03;2.05;;;27.10;61.50;;;;;;6126773;23;20009;-86
2022/08/22 15:54:50;;;;;;;4.95;2.20;;;27.10;61.70;;;;;;6151545;23;20335;-87
2022/08/22 15:57:47;;;;;;;2.60;1.58;;;27.00;61.10;;;;;;6125971;23;20005;-86
2022/08/22 16:00:42;;;;;;;4.63;1.95;;;27.00;61.10;;;;;;6151682;22;20009;-87
2022/08/22 16:03:14;;;;;;;4.65;2.00;;;27.00;61.30;;;;;;6152728;23;20009;-86
2022/08/22 16:05:52;;;;;;;4.15;1.80;;;27.00;61.30;;;;;;6125779;23;20009;-87
2022/08/22 16:08:30;;;;;;;8.07;5.82;;;27.00;61.10;;;;;;6126274;23;20036;-87
2022/08/22 16:11:02;;;;;;;9.27;7.13;;;27.00;61.50;;;;;;6126745;23;20327;-87
2022/08/22 16:13:33;;;;;;;8.27;5.43;;;27.00;61.80;;;;;;6151937;23;19998;-88
2022/08/22 16:16:26;;;;;;;10.43;5.00;;;27.00;60.90;;;;;;6126103;23;20073;-88
2022/08/22 16:18:51;;;;;;;4.60;3.08;;;27.00;60.90;;;;;;6126173;23;20105;-87
2022/08/22 16:21:19;;;;;;;4.63;2.70;;;27.00;61.40;;;;;;6126365;22;20403;-87
2022/08/22 16:23:55;;;;;;;3.60;2.10;;;27.00;61.50;;;;;;6126416;23;20005;-87
2022/08/22 16:26:30;;;;;;;4.53;2.08;;;27.10;61.50;;;;;;6126331;23;20427;-86
2022/08/22 16:29:10;;;;;;;2.80;1.70;;;27.00;60.80;;;;;;6126357;23;20009;-88
2022/08/22 16:31:45;;;;;;;3.33;2.00;;;27.10;61.30;;;;;;6125994;23;20084;-86
2022/08/22 16:34:17;;;;;;;3.20;1.85;;;27.00;61.40;;;;;;6126067;23;20002;-86
2022/08/22 16:37:01;;;;;;;3.45;1.92;;;27.00;60.90;;;;;;6121166;22;20045;-86
2022/08/22 16:40:02;;;;;;;5.30;1.95;;;27.00;59.00;;;;;;6122693;23;20002;-87
2022/08/22 16:43:03;;;;;;;3.60;1.80;;;26.90;58.30;;;;;;6123795;23;20522;-86
2022/08/22 16:45:33;;;;;;;3.75;1.70;;;26.90;59.00;;;;;;6117959;23;20042;-88
2022/08/22 16:48:15;;;;;;;4.88;1.70;;;26.90;59.60;;;;;;6122791;23;20006;-86
2022/08/22 16:51:25;;;;;;;4.35;1.83;;;26.80;58.90;;;;;;6122373;23;20416;-87
2022/08/22 16:54:05;;;;;;;4.55;2.00;;;26.90;58.80;;;;;;6124029;23;20002;-87
2022/08/22 16:56:54;;;;;;;5.20;2.10;;;26.80;58.20;;;;;;6123867;23;20022;-88
2022/08/22 16:59:41;;;;;;;4.57;1.75;;;26.80;59.20;;;;;;6122517;23;20481;-87
2022/08/22 17:02:21;;;;;;;3.53;1.80;;;26.80;58.60;;;;;;6122610;23;20041;-87
2022/08/22 17:05:23;;;;;;;3.67;1.97;;;26.80;58.60;;;;;;6124024;23;20006;-86
2022/08/22 17:08:01;;;;;;;3.65;1.70;;;26.90;59.60;;;;;;6122696;23;20431;-87
2022/08/22 17:10:48;;;;;;;4.18;1.80;;;26.80;59.60;;;;;;6122834;23;20033;-87
2022/08/22 17:13:27;;;;;;;3.90;2.13;;;26.80;59.20;;;;;;6126095;23;20077;-87
2022/08/22 17:16:00;;;;;;;4.45;2.10;;;26.80;58.80;;;;;;6100898;23;20100;-88
2022/08/22 17:18:58;;;;;;;3.70;1.95;;;26.70;57.50;;;;;;6125481;23;20006;-88
2022/08/22 17:21:37;;;;;;;2.97;1.80;;;26.70;58.40;;;;;;6125301;23;20097;-88
2022/08/22 17:24:15;;;;;;;3.58;1.90;;;26.70;59.00;;;;;;6126968;23;20009;-89
2022/08/22 17:27:04;;;;;;;2.92;1.65;;;26.70;59.30;;;;;;6128284;23;20009;-88
2022/08/22 17:29:44;;;;;;;4.38;1.95;;;26.70;59.30;;;;;;6125641;23;20343;-87
2022/08/22 17:32:33;;;;;;;3.65;1.70;;;26.70;59.30;;;;;;6126739;23;20002;-88
2022/08/22 17:35:23;;;;;;;3.83;2.17;;;26.60;59.80;;;;;;6125608;23;20014;-88
2022/08/22 17:38:23;;;;;;;3.13;1.80;;;26.70;59.60;;;;;;6124971;23;20258;-88
2022/08/22 17:41:40;;;;;;;2.65;1.65;;;26.60;59.00;;;;;;6130039;23;20024;-88
2022/08/22 17:44:37;;;;;;;2.60;1.80;;;26.60;59.70;;;;;;6103628;23;19990;-88
2022/08/22 17:47:16;;;;;;;3.88;1.83;;;26.50;59.00;;;;;;6146154;23;19990;-87
2022/08/22 17:49:58;;;;;;;3.85;2.25;;;26.50;58.90;;;;;;6147474;23;20009;-87
2022/08/22 17:52:45;;;;;;;;;;;;;;;;;;;;;
2022/08/22 17:55:31;;;;;;;3.72;1.92;;;26.50;58.80;;;;;;6144458;23;20010;-88
2022/08/22 17:58:11;;;;;;;4.05;1.80;;;26.40;58.50;;;;;;6159621;23;20059;-86
2022/08/22 18:00:49;;;;;;;2.17;1.40;;;26.40;58.80;;;;;;6124588;23;20006;-88
2022/08/22 18:03:21;;;;;;;3.33;1.90;;;26.40;59.10;;;;;;6126162;23;20070;-88
2022/08/22 18:06:09;;;;;;;2.88;1.65;;;26.40;59.70;;;;;;6124979;23;20017;-88
2022/08/22 18:08:49;;;;;;;5.30;1.92;;;26.40;60.20;;;;;;6123107;23;20014;-90
2022/08/22 18:11:19;;;;;;;3.08;1.80;;;26.30;60.50;;;;;;6124894;23;20013;-86
2022/08/22 18:14:07;;;;;;;2.92;1.88;;;26.30;60.60;;;;;;6124704;23;20028;-86
2022/08/22 18:16:48;;;;;;;3.90;2.10;;;26.30;60.70;;;;;;6125254;23;20034;-88
2022/08/22 18:19:42;;;;;;;5.07;2.13;;;26.20;60.60;;;;;;6124552;23;20447;-88
2022/08/22 18:22:26;;;;;;;4.40;2.17;;;26.20;60.80;;;;;;6124828;23;20009;-86
2022/08/22 18:25:35;;;;;;;3.42;1.95;;;26.20;60.90;;;;;;6125410;23;20020;-88
2022/08/22 18:28:50;;;;;;;2.80;1.80;;;26.10;60.60;;;;;;6130475;23;20420;-87
2022/08/22 18:31:38;;;;;;;6.65;2.20;;;26.10;61.10;;;;;;6155210;23;20056;-88
2022/08/22 18:34:25;;;;;;;4.43;2.30;;;26.10;61.40;;;;;;6126660;23;20002;-88
2022/08/22 18:37:13;;;;;;;3.08;1.65;;;26.00;61.50;;;;;;6126186;23;20018;-87
2022/08/22 18:40:30;;;;;;;6.10;1.60;;;26.00;61.70;;;;;;6130034;23;20125;-89
2022/08/22 18:43:35;;;;;;;3.72;2.00;;;25.90;61.70;;;;;;6118708;23;20006;-88
2022/08/22 18:49:53;;;;;;;5.18;2.03;;;25.80;62.30;;;;;;6155401;23;20325;-88
2022/08/22 19:24:42;;;;;;;;;;;;;;;;;;;;;
2022/08/22 19:42:01;;;;;;;;;;;;;;;;;;;;;
2022/08/22 19:48:55;;;;;;;;;;;;;;;;;;;;;
2022/08/22 20:06:23;;;;;;;;;;;;;;;;;;;;;
2022/08/22 20:10:10;;;;;;;;;;;;;;;;;;;;;
2022/08/22 20:19:31;;;;;;;;;;;;;;;;;;;;;
2022/08/22 20:26:05;;;;;;;3.75;2.20;;;23.90;69.80;;;;;;6137041;23;20009;-90
2022/08/22 20:30:04;;;;;;;;;;;;;;;;;;;;;
2022/08/22 20:37:12;;;;;;;;;;;;;;;;;;;;;
2022/08/22 20:44:16;;;;;;;;;;;;;;;;;;;;;
2022/08/22 21:04:58;;;;;;;;;;;;;;;;;;;;;
2022/08/22 21:14:44;;;;;;;;;;;;;;;;;;;;;
2022/08/22 21:34:29;;;;;;;4.43;2.10;;;23.80;72.30;;;;;;6009438;23;20047;-90
2022/08/22 21:48:37;;;;;;;;;;;;;;;;;;;;;
2022/08/22 21:55:22;;;;;;;;;;;;;;;;;;;;;
2022/08/22 21:58:37;;;;;;;;;;;;;;;;;;;;;
2022/08/22 22:02:01;;;;;;;;;;;;;;;;;;;;;
2022/08/22 22:05:39;;;;;;;;;;;;;;;;;;;;;
2022/08/22 22:18:08;;;;;;;;;;;;;;;;;;;;;
2022/08/22 22:28:01;;;;;;;;;;;;;;;;;;;;;
2022/08/22 22:34:25;;;;;;;;;;;;;;;;;;;;;
2022/08/22 22:37:32;;;;;;;3.90;2.00;;;23.60;73.20;;;;;;6101964;23;20048;-90
2022/08/22 22:41:24;;;;;;;2.78;1.90;;;23.60;73.20;;;;;;6101506;23;20093;-89
2022/08/22 22:44:24;;;;;;;5.65;2.22;;;23.70;73.20;;;;;;6088366;23;20014;-88
2022/08/22 22:47:31;;;;;;;9.45;2.50;;;23.60;73.20;;;;;;6097244;23;20314;-90
2022/08/22 22:51:06;;;;;;;4.25;1.95;;;23.70;73.20;;;;;;5957843;24;20024;-90
2022/08/22 22:58:19;;;;;;;;;;;;;;;;;;;;;
2022/08/22 23:07:04;;;;;;;;;;;;;;;;;;;;;
2022/08/22 23:10:31;;;;;;;4.60;2.42;;;23.60;73.30;;;;;;6097935;23;20080;-90
2022/08/22 23:13:18;;;;;;;;;;;;;;;;;;;;;
2022/08/22 23:16:24;;;;;;;5.32;2.13;;;23.60;73.50;;;;;;6095920;23;20070;-91
2022/08/22 23:22:58;;;;;;;;;;;;;;;;;;;;;
2022/08/22 23:29:21;;;;;;;4.63;2.33;;;23.50;73.70;;;;;;6143184;23;20033;-89
2022/08/22 23:32:35;;;;;;;;;;;;;;;;;;;;;
2022/08/22 23:35:57;;;;;;;;;;;;;;;;;;;;;
2022/08/22 23:38:56;;;;;;;;;;;;;;;;;;;;;
2022/08/22 23:44:57;;;;;;;4.90;1.95;;;23.30;74.50;;;;;;6113138;23;20013;-89
2022/08/22 23:50:46;;;;;;;;;;;;;;;;;;;;;
2022/08/22 23:53:44;;;;;;;;;;;;;;;;;;;;;
